createdAt,value
2022-08-19T00:00:55.160Z,56.30
2022-08-19T00:01:54.994Z,56.70
2022-08-19T00:02:55.213Z,62.90
2022-08-19T00:03:54.978Z,56.30
2022-08-19T00:04:55.040Z,57.20
2022-08-19T00:05:55.007Z,59.10
2022-08-19T00:06:54.998Z,59.50
2022-08-19T00:07:54.924Z,58.20
2022-08-19T00:08:54.991Z,58.60
2022-08-19T00:09:54.951Z,58.20
2022-08-19T00:10:55.621Z,54.80
2022-08-19T00:11:54.947Z,60.90
2022-08-19T00:12:54.932Z,55.90
2022-08-19T00:13:56.365Z,60.30
2022-08-19T00:14:54.894Z,56.20
2022-08-19T00:15:54.947Z,62.40
2022-08-19T00:16:54.921Z,55.70
2022-08-19T00:17:54.863Z,58.40
2022-08-19T00:18:54.871Z,57.00
2022-08-19T00:19:54.857Z,60.60
2022-08-19T00:20:54.832Z,57.10
2022-08-19T00:21:54.867Z,59.20
2022-08-19T00:22:54.947Z,60.70
2022-08-19T00:23:54.832Z,54.80
2022-08-19T00:24:54.820Z,62.00
2022-08-19T00:25:54.836Z,58.10
2022-08-19T00:26:54.836Z,57.60
2022-08-19T00:27:54.816Z,59.10
2022-08-19T00:28:54.830Z,59.80
2022-08-19T00:29:54.761Z,60.20
2022-08-19T00:30:54.807Z,57.60
2022-08-19T00:31:54.773Z,62.10
2022-08-19T00:32:54.813Z,60.60
2022-08-19T00:33:54.806Z,57.70
2022-08-19T00:34:54.827Z,59.30
2022-08-19T00:35:55.997Z,62.30
2022-08-19T00:36:54.766Z,58.90
2022-08-19T00:37:54.732Z,62.30
2022-08-19T00:38:54.722Z,60.20
2022-08-19T00:39:54.723Z,56.20
2022-08-19T00:40:54.691Z,62.20
2022-08-19T00:41:54.716Z,61.30
2022-08-19T00:42:54.674Z,60.00
2022-08-19T00:43:54.689Z,58.00
2022-08-19T00:44:54.648Z,58.80
2022-08-19T00:45:54.664Z,61.10
2022-08-19T00:46:55.405Z,60.50
2022-08-19T00:47:54.632Z,60.50
2022-08-19T00:48:54.644Z,56.50
2022-08-19T00:49:54.648Z,60.90
2022-08-19T00:50:54.627Z,59.10
2022-08-19T00:51:54.625Z,59.70
2022-08-19T00:52:54.779Z,55.30
2022-08-19T00:53:54.673Z,56.50
2022-08-19T00:54:54.620Z,57.60
2022-08-19T00:55:54.588Z,60.10
2022-08-19T00:56:54.588Z,58.20
2022-08-19T00:57:54.555Z,61.00
2022-08-19T00:58:54.560Z,59.90
2022-08-19T01:00:01.654Z,62.80
2022-08-19T01:00:55.531Z,59.20
2022-08-19T01:01:54.587Z,56.60
2022-08-19T01:02:54.707Z,59.80
2022-08-19T01:03:57.564Z,56.00
2022-08-19T01:04:54.527Z,61.10
2022-08-19T01:05:54.567Z,59.50
2022-08-19T01:06:54.469Z,55.70
2022-08-19T01:07:54.476Z,54.90
2022-08-19T01:08:54.510Z,54.50
2022-08-19T01:09:54.458Z,52.10
2022-08-19T01:10:54.522Z,52.50
2022-08-19T01:11:54.542Z,53.40
2022-08-19T01:12:54.577Z,52.40
2022-08-19T01:13:54.436Z,53.40
2022-08-19T01:14:54.446Z,51.50
2022-08-19T01:15:54.487Z,54.40
2022-08-19T01:16:54.441Z,55.10
2022-08-19T01:17:54.474Z,56.10
2022-08-19T01:18:54.400Z,55.90
2022-08-19T01:19:54.528Z,54.70
2022-08-19T01:20:54.383Z,51.80
2022-08-19T01:21:54.434Z,53.70
2022-08-19T01:22:54.591Z,52.90
2022-08-19T01:23:54.353Z,58.60
2022-08-19T01:24:54.341Z,55.90
2022-08-19T01:25:55.396Z,61.60
2022-08-19T01:26:54.558Z,54.50
2022-08-19T01:27:54.399Z,51.70
2022-08-19T01:28:54.419Z,52.00
2022-08-19T01:29:54.525Z,53.10
2022-08-19T01:30:54.317Z,51.40
2022-08-19T01:31:54.346Z,52.10
2022-08-19T01:32:54.611Z,51.30
2022-08-19T01:33:54.265Z,50.40
2022-08-19T01:34:54.318Z,50.90
2022-08-19T01:35:54.292Z,51.40
2022-08-19T01:36:54.259Z,53.00
2022-08-19T01:37:54.244Z,52.40
2022-08-19T01:38:54.252Z,52.00
2022-08-19T01:39:54.377Z,48.60
2022-08-19T01:40:54.203Z,51.20
2022-08-19T01:41:54.194Z,51.10
2022-08-19T01:42:54.388Z,53.20
2022-08-19T01:44:13.953Z,54.60
2022-08-19T01:44:55.199Z,53.60
2022-08-19T02:03:06.636Z,47.70
2022-08-19T02:04:06.538Z,50.60
2022-08-19T02:05:07.610Z,53.30
2022-08-19T02:06:07.686Z,50.60
2022-08-19T02:07:07.644Z,50.80
2022-08-19T02:08:07.645Z,49.10
2022-08-19T02:09:07.649Z,49.60
2022-08-19T02:10:09.405Z,49.60
2022-08-19T02:11:07.563Z,58.20
2022-08-19T02:12:07.553Z,50.20
2022-08-19T02:13:07.560Z,55.00
2022-08-19T02:14:07.597Z,54.20
2022-08-19T02:15:39.456Z,53.40
2022-08-19T02:16:07.514Z,50.40
2022-08-19T02:17:07.552Z,56.90
2022-08-19T02:18:07.514Z,54.40
2022-08-19T02:19:07.479Z,54.80
2022-08-19T02:20:07.468Z,51.80
2022-08-19T02:21:07.499Z,53.70
2022-08-19T02:22:07.457Z,52.30
2022-08-19T02:23:13.480Z,50.30
2022-08-19T02:24:08.469Z,49.40
2022-08-19T02:25:07.446Z,50.40
2022-08-19T02:26:07.746Z,55.80
2022-08-19T02:27:07.497Z,49.10
2022-08-19T02:28:07.421Z,49.50
2022-08-19T02:29:07.431Z,49.70
2022-08-19T02:30:07.400Z,50.10
2022-08-19T02:31:07.389Z,49.50
2022-08-19T02:32:07.431Z,46.70
2022-08-19T02:33:07.427Z,51.70
2022-08-19T02:34:07.376Z,48.90
2022-08-19T02:35:12.483Z,57.00
2022-08-19T02:36:08.368Z,52.60
2022-08-19T02:37:07.357Z,52.20
2022-08-19T02:38:07.368Z,49.80
2022-08-19T02:39:07.338Z,54.50
2022-08-19T02:40:12.370Z,54.30
2022-08-19T02:41:08.351Z,54.00
2022-08-19T02:42:07.322Z,55.20
2022-08-19T02:43:07.324Z,53.70
2022-08-19T02:44:26.362Z,52.30
2022-08-19T02:45:08.286Z,56.90
2022-08-19T02:46:07.281Z,53.80
2022-08-19T02:47:07.295Z,59.40
2022-08-19T02:48:14.878Z,53.90
2022-08-19T02:49:08.299Z,51.40
2022-08-19T02:50:07.268Z,51.20
2022-08-19T02:51:07.245Z,49.80
2022-08-19T02:52:07.248Z,49.90
2022-08-19T02:53:07.254Z,48.10
2022-08-19T02:54:07.259Z,50.10
2022-08-19T02:55:07.248Z,54.50
2022-08-19T02:56:07.216Z,49.60
2022-08-19T02:57:07.192Z,47.30
2022-08-19T02:58:08.228Z,47.40
2022-08-19T02:59:07.195Z,47.70
2022-08-19T03:00:07.248Z,50.80
2022-08-19T03:01:07.208Z,48.30
2022-08-19T03:02:07.160Z,47.80
2022-08-19T03:03:07.155Z,50.10
2022-08-19T03:04:07.173Z,51.20
2022-08-19T03:05:07.211Z,50.20
2022-08-19T03:06:07.137Z,50.80
2022-08-19T03:07:10.607Z,52.50
2022-08-19T03:08:07.135Z,49.50
2022-08-19T03:09:07.226Z,50.80
2022-08-19T03:10:07.141Z,50.80
2022-08-19T03:11:07.117Z,47.00
2022-08-19T03:12:07.107Z,50.50
2022-08-19T03:13:07.089Z,45.90
2022-08-19T03:14:07.092Z,49.60
2022-08-19T03:15:07.067Z,45.90
2022-08-19T03:16:07.088Z,45.80
2022-08-19T03:17:07.062Z,44.40
2022-08-19T03:18:07.039Z,46.50
2022-08-19T03:19:07.238Z,47.30
2022-08-19T03:20:07.046Z,45.70
2022-08-19T03:21:07.022Z,47.90
2022-08-19T03:22:08.028Z,56.00
2022-08-19T03:23:07.004Z,48.80
2022-08-19T03:24:07.036Z,52.20
2022-08-19T03:25:07.071Z,54.20
2022-08-19T03:26:15.912Z,54.40
2022-08-19T03:27:07.968Z,54.90
2022-08-19T03:28:06.976Z,51.60
2022-08-19T03:29:06.979Z,51.20
2022-08-19T03:30:06.956Z,53.20
2022-08-19T03:31:41.611Z,56.50
2022-08-19T03:32:07.968Z,51.20
2022-08-19T03:33:07.941Z,49.10
2022-08-19T03:34:08.083Z,51.50
2022-08-19T03:35:06.912Z,52.70
2022-08-19T03:36:06.933Z,49.50
2022-08-19T03:37:06.919Z,49.60
2022-08-19T03:38:06.925Z,49.10
2022-08-19T03:39:06.905Z,50.60
2022-08-19T03:40:06.922Z,49.00
2022-08-19T03:41:07.633Z,51.10
2022-08-19T03:42:32.680Z,50.80
2022-08-19T03:43:07.872Z,46.90
2022-08-19T03:44:06.883Z,49.20
2022-08-19T03:45:07.883Z,48.10
2022-08-19T03:46:06.837Z,50.00
2022-08-19T04:02:10.402Z,52.30
2022-08-19T04:03:10.352Z,50.80
2022-08-19T04:04:10.919Z,49.00
2022-08-19T04:05:11.482Z,50.90
2022-08-19T04:06:11.504Z,50.80
2022-08-19T04:07:11.506Z,46.70
2022-08-19T04:08:13.929Z,51.30
2022-08-19T04:09:13.068Z,49.90
2022-08-19T04:10:11.434Z,51.10
2022-08-19T04:11:11.436Z,45.20
2022-08-19T04:12:11.653Z,47.50
2022-08-19T04:13:11.423Z,48.20
2022-08-19T04:14:11.521Z,47.00
2022-08-19T04:15:11.382Z,44.50
2022-08-19T04:16:11.407Z,44.70
2022-08-19T04:17:11.918Z,47.80
2022-08-19T04:18:11.367Z,43.90
2022-08-19T04:19:11.372Z,43.20
2022-08-19T04:20:11.397Z,42.80
2022-08-19T04:21:11.359Z,44.40
2022-08-19T04:22:11.340Z,43.60
2022-08-19T04:23:11.349Z,39.70
2022-08-19T04:24:11.323Z,42.20
2022-08-19T04:25:11.350Z,36.00
2022-08-19T04:26:11.329Z,37.30
2022-08-19T04:27:11.316Z,40.80
2022-08-19T04:28:11.322Z,38.70
2022-08-19T04:29:12.668Z,37.50
2022-08-19T04:30:12.300Z,41.00
2022-08-19T04:31:11.301Z,38.40
2022-08-19T04:32:11.258Z,38.20
2022-08-19T04:33:11.280Z,38.50
2022-08-19T04:34:11.239Z,43.10
2022-08-19T04:35:17.015Z,40.00
2022-08-19T04:36:12.349Z,41.00
2022-08-19T04:37:11.220Z,36.60
2022-08-19T04:38:11.213Z,39.20
2022-08-19T04:39:11.233Z,41.10
2022-08-19T04:40:11.303Z,39.90
2022-08-19T04:41:11.219Z,39.20
2022-08-19T04:42:11.226Z,38.80
2022-08-19T04:43:12.068Z,40.10
2022-08-19T04:44:11.197Z,40.70
2022-08-19T04:45:12.365Z,38.30
2022-08-19T04:46:11.215Z,38.60
2022-08-19T04:47:12.181Z,38.60
2022-08-19T04:48:26.508Z,40.40
2022-08-19T04:49:12.950Z,40.60
2022-08-19T04:50:11.137Z,38.10
2022-08-19T04:51:11.149Z,38.60
2022-08-19T04:52:11.117Z,42.40
2022-08-19T04:53:11.134Z,39.90
2022-08-19T04:54:11.101Z,38.00
2022-08-19T04:55:11.115Z,38.70
2022-08-19T04:56:11.115Z,40.60
2022-08-19T04:57:12.063Z,38.00
2022-08-19T04:58:11.091Z,34.50
2022-08-19T04:59:11.124Z,34.10
2022-08-19T05:00:11.058Z,38.40
2022-08-19T05:01:11.137Z,37.20
2022-08-19T05:02:11.065Z,30.50
2022-08-19T05:03:11.047Z,37.60
2022-08-19T05:04:11.070Z,33.50
2022-08-19T05:05:11.033Z,36.30
2022-08-19T05:06:12.011Z,33.20
2022-08-19T05:07:11.043Z,36.10
2022-08-19T05:08:10.986Z,37.30
2022-08-19T05:09:11.017Z,31.50
2022-08-19T05:10:10.977Z,32.90
2022-08-19T05:11:11.006Z,30.70
2022-08-19T05:12:11.613Z,31.90
2022-08-19T05:13:10.952Z,35.30
2022-08-19T05:14:10.983Z,36.50
2022-08-19T05:15:10.950Z,31.40
2022-08-19T05:16:10.934Z,27.60
2022-08-19T05:17:27.226Z,27.40
2022-08-19T05:18:12.920Z,27.40
2022-08-19T05:19:12.082Z,30.60
2022-08-19T05:20:10.920Z,34.40
2022-08-19T05:21:10.918Z,32.40
2022-08-19T05:22:10.891Z,32.40
2022-08-19T05:23:13.396Z,29.70
2022-08-19T05:24:11.872Z,29.40
2022-08-19T05:25:13.363Z,28.50
2022-08-19T05:26:11.858Z,28.50
2022-08-19T05:27:10.853Z,23.50
2022-08-19T05:28:10.860Z,25.10
2022-08-19T05:29:10.866Z,20.10
2022-08-19T05:30:10.931Z,24.70
2022-08-19T05:31:10.822Z,23.70
2022-08-19T05:32:10.853Z,25.20
2022-08-19T05:33:10.867Z,25.70
2022-08-19T05:34:18.341Z,23.50
2022-08-19T05:35:11.814Z,25.10
2022-08-19T05:36:10.834Z,22.90
2022-08-19T05:37:10.774Z,24.00
2022-08-19T05:38:10.783Z,23.30
2022-08-19T05:39:10.767Z,22.40
2022-08-19T05:40:10.871Z,23.00
2022-08-19T05:41:10.796Z,20.40
2022-08-19T05:42:10.753Z,16.40
2022-08-19T05:43:10.764Z,20.10
2022-08-19T05:44:10.749Z,16.70
2022-08-19T05:45:10.728Z,20.90
2022-08-19T05:46:10.741Z,20.30
2022-08-19T05:47:10.713Z,20.60
2022-08-19T05:48:11.633Z,23.10
2022-08-19T05:49:10.724Z,18.40
2022-08-19T05:50:10.706Z,19.10
2022-08-19T05:51:10.728Z,20.80
2022-08-19T05:52:10.702Z,18.40
2022-08-19T05:53:10.702Z,23.70
2022-08-19T05:54:10.665Z,14.50
2022-08-19T05:55:10.652Z,17.20
2022-08-19T05:56:10.716Z,17.60
2022-08-19T05:57:13.294Z,21.80
2022-08-19T05:58:10.712Z,22.90
2022-08-19T05:59:10.633Z,19.30
2022-08-19T06:00:10.639Z,20.70
2022-08-19T06:01:10.647Z,20.70
2022-08-19T06:02:10.664Z,20.70
2022-08-19T06:03:12.556Z,25.60
2022-08-19T06:04:10.593Z,21.10
2022-08-19T06:05:11.595Z,23.30
2022-08-19T06:06:10.579Z,22.50
2022-08-19T06:07:12.144Z,21.40
2022-08-19T06:08:11.571Z,21.20
2022-08-19T06:09:10.643Z,19.30
2022-08-19T06:10:10.569Z,22.10
2022-08-19T06:11:10.541Z,19.10
2022-08-19T06:12:10.637Z,19.20
2022-08-19T06:13:10.544Z,21.50
2022-08-19T06:14:16.441Z,15.50
2022-08-19T06:15:11.520Z,12.30
2022-08-19T06:16:10.526Z,12.70
2022-08-19T06:17:10.517Z,12.90
2022-08-19T06:18:10.487Z,11.90
2022-08-19T06:19:10.476Z,10.10
2022-08-19T06:20:10.459Z,12.80
2022-08-19T06:21:10.457Z,10.90
2022-08-19T06:22:10.497Z,10.50
2022-08-19T06:23:10.449Z,8.70
2022-08-19T06:24:11.425Z,8.80
2022-08-19T06:25:10.460Z,10.70
2022-08-19T06:26:10.420Z,10.20
2022-08-19T06:27:10.422Z,10.50
2022-08-19T06:28:17.773Z,11.50
2022-08-19T06:29:12.384Z,13.00
2022-08-19T06:30:11.381Z,9.70
2022-08-19T06:31:10.374Z,11.00
2022-08-19T06:32:10.359Z,12.00
2022-08-19T06:33:10.375Z,9.80
2022-08-19T06:34:10.354Z,9.90
2022-08-19T06:35:10.371Z,9.50
2022-08-19T06:36:11.092Z,9.00
2022-08-19T06:37:10.330Z,6.60
2022-08-19T06:38:10.393Z,5.40
2022-08-19T06:39:10.312Z,8.80
2022-08-19T06:40:10.386Z,8.40
2022-08-19T06:41:10.298Z,8.10
2022-08-19T06:42:11.097Z,6.70
2022-08-19T06:43:11.132Z,8.30
2022-08-19T06:44:13.256Z,6.50
2022-08-19T06:45:10.294Z,5.50
2022-08-19T06:46:10.269Z,7.40
2022-08-19T06:47:14.902Z,7.10
2022-08-19T06:48:11.664Z,6.10
2022-08-19T06:49:10.237Z,7.70
2022-08-19T06:50:10.266Z,10.00
2022-08-19T06:51:10.217Z,7.60
2022-08-19T06:52:10.218Z,7.40
2022-08-19T06:53:10.199Z,6.80
2022-08-19T06:54:19.258Z,12.20
2022-08-19T06:55:11.195Z,4.30
2022-08-19T06:56:10.208Z,5.50
2022-08-19T06:57:10.173Z,5.30
2022-08-19T06:58:10.167Z,5.40
2022-08-19T06:59:10.161Z,7.10
2022-08-19T07:00:12.836Z,5.50
2022-08-19T07:01:11.157Z,5.60
2022-08-19T07:02:10.159Z,6.80
2022-08-19T07:03:12.926Z,7.90
2022-08-19T07:04:12.003Z,8.70
2022-08-19T07:05:10.201Z,6.90
2022-08-19T07:06:21.320Z,7.00
2022-08-19T07:07:19.722Z,7.00
2022-08-19T07:08:11.139Z,6.00
2022-08-19T07:09:10.083Z,5.70
2022-08-19T07:10:10.090Z,5.60
2022-08-19T07:11:10.847Z,5.30
2022-08-19T07:12:10.083Z,5.80
2022-08-19T07:13:10.079Z,5.00
2022-08-19T07:14:18.880Z,5.90
2022-08-19T07:15:11.044Z,8.30
2022-08-19T07:16:10.039Z,7.30
2022-08-19T07:17:10.024Z,5.30
2022-08-19T07:18:11.761Z,6.10
2022-08-19T07:19:15.647Z,5.50
2022-08-19T07:20:11.002Z,5.10
2022-08-19T07:21:10.023Z,5.20
2022-08-19T07:22:09.998Z,5.50
2022-08-19T07:23:09.984Z,6.00
2022-08-19T07:24:10.976Z,4.40
2022-08-19T07:25:10.549Z,5.50
2022-08-19T07:26:09.989Z,6.10
2022-08-19T07:27:13.822Z,5.40
2022-08-19T07:28:22.399Z,5.70
2022-08-19T07:29:10.938Z,5.20
2022-08-19T07:30:11.609Z,5.60
2022-08-19T07:31:09.922Z,6.00
2022-08-19T07:32:11.573Z,6.20
2022-08-19T07:33:09.944Z,5.00
2022-08-19T07:34:09.883Z,6.10
2022-08-19T07:35:09.892Z,6.10
2022-08-19T07:36:09.882Z,5.10
2022-08-19T07:37:09.865Z,8.60
2022-08-19T07:38:09.894Z,4.40
2022-08-19T07:39:09.859Z,3.70
2022-08-19T07:40:09.884Z,4.80
2022-08-19T07:41:09.849Z,7.20
2022-08-19T07:42:09.855Z,6.00
2022-08-19T07:43:13.956Z,5.00
2022-08-19T07:44:10.845Z,5.30
2022-08-19T07:45:09.819Z,4.00
2022-08-19T07:47:48.214Z,6.50
2022-08-19T07:48:10.791Z,5.30
2022-08-19T07:49:09.783Z,4.50
2022-08-19T07:50:09.850Z,3.90
2022-08-19T07:51:09.814Z,5.80
2022-08-19T07:52:09.759Z,6.30
2022-08-19T07:53:09.753Z,4.70
2022-08-19T07:54:09.741Z,5.10
2022-08-19T07:55:39.821Z,3.30
2022-08-19T07:56:10.717Z,8.30
2022-08-19T07:57:09.721Z,5.40
2022-08-19T07:58:09.736Z,4.60
2022-08-19T07:59:09.707Z,7.90
2022-08-19T08:00:09.713Z,5.50
2022-08-19T08:01:12.066Z,5.00
2022-08-19T08:02:09.733Z,6.50
2022-08-19T08:03:09.696Z,5.10
2022-08-19T08:04:09.666Z,7.90
2022-08-19T08:05:09.669Z,5.80
2022-08-19T08:06:09.659Z,5.50
2022-08-19T08:07:11.631Z,4.30
2022-08-19T08:08:09.630Z,3.40
2022-08-19T08:09:09.641Z,6.00
2022-08-19T08:10:20.519Z,4.50
2022-08-19T08:11:11.664Z,4.10
2022-08-19T08:12:32.825Z,5.50
2022-08-19T08:13:11.803Z,5.40
2022-08-19T08:14:09.587Z,5.70
2022-08-19T08:15:39.955Z,5.50
2022-08-19T08:16:13.866Z,5.70
2022-08-19T08:17:10.783Z,4.50
2022-08-19T08:18:09.615Z,5.00
2022-08-19T08:19:14.706Z,4.60
2022-08-19T08:20:11.159Z,8.30
2022-08-19T08:21:09.594Z,5.00
2022-08-19T08:22:09.529Z,4.70
2022-08-19T08:23:10.550Z,3.90
2022-08-19T08:24:09.548Z,7.20
2022-08-19T08:25:09.586Z,3.70
2022-08-19T08:26:09.502Z,4.30
2022-08-19T08:27:11.152Z,3.80
2022-08-19T08:28:09.521Z,5.80
2022-08-19T08:29:12.299Z,4.30
2022-08-19T08:30:09.531Z,4.10
2022-08-19T08:31:09.913Z,5.70
2022-08-19T08:32:14.051Z,5.90
2022-08-19T08:33:10.560Z,4.80
2022-08-19T08:34:09.481Z,4.30
2022-08-19T08:35:09.447Z,3.40
2022-08-19T08:36:09.519Z,3.80
2022-08-19T08:37:09.440Z,4.40
2022-08-19T08:38:09.435Z,5.50
2022-08-19T08:39:09.510Z,4.80
2022-08-19T08:40:13.045Z,4.40
2022-08-19T08:41:10.411Z,5.40
2022-08-19T08:42:10.434Z,3.60
2022-08-19T08:43:10.844Z,4.20
2022-08-19T08:44:09.418Z,6.10
2022-08-19T08:45:10.403Z,8.30
2022-08-19T08:46:09.422Z,5.60
2022-08-19T08:47:09.389Z,5.20
2022-08-19T08:48:22.282Z,4.90
2022-08-19T08:49:10.366Z,4.30
2022-08-19T08:50:09.357Z,4.00
2022-08-19T08:51:09.370Z,5.70
2022-08-19T08:52:09.355Z,5.40
2022-08-19T08:53:09.328Z,3.70
2022-08-19T08:54:09.843Z,5.40
2022-08-19T08:55:10.166Z,6.20
2022-08-19T08:56:09.321Z,4.60
2022-08-19T08:57:09.334Z,5.90
2022-08-19T08:58:09.315Z,8.40
2022-08-19T08:59:09.303Z,5.70
2022-08-19T09:00:15.453Z,6.60
2022-08-19T09:01:10.301Z,5.20
2022-08-19T09:02:09.282Z,4.40
2022-08-19T09:03:09.279Z,5.50
2022-08-19T09:04:09.300Z,7.10
2022-08-19T09:05:09.243Z,5.60
2022-08-19T09:06:12.012Z,5.10
2022-08-19T09:07:18.217Z,7.90
2022-08-19T09:08:12.074Z,5.70
2022-08-19T09:09:12.039Z,4.10
2022-08-19T09:10:09.186Z,4.80
2022-08-19T09:11:09.180Z,5.00
2022-08-19T09:12:09.391Z,5.20
2022-08-19T09:13:09.639Z,4.20
2022-08-19T09:14:19.188Z,4.40
2022-08-19T09:15:10.168Z,4.90
2022-08-19T09:16:09.190Z,4.40
2022-08-19T09:17:09.161Z,3.60
2022-08-19T09:18:09.159Z,6.80
2022-08-19T09:19:10.195Z,3.60
2022-08-19T09:20:10.047Z,6.10
2022-08-19T09:21:10.048Z,5.00
2022-08-19T09:22:09.115Z,5.40
2022-08-19T09:23:09.097Z,4.10
2022-08-19T09:24:09.098Z,4.30
2022-08-19T09:25:09.140Z,5.80
2022-08-19T09:26:09.113Z,5.00
2022-08-19T09:27:18.782Z,5.20
2022-08-19T09:28:15.218Z,6.90
2022-08-19T09:29:10.034Z,4.80
2022-08-19T09:30:09.073Z,5.10
2022-08-19T09:31:09.065Z,3.40
2022-08-19T09:32:26.470Z,4.70
2022-08-19T09:33:10.035Z,5.20
2022-08-19T09:34:09.025Z,4.30
2022-08-19T09:35:10.150Z,5.10
2022-08-19T09:36:09.030Z,4.70
2022-08-19T09:37:41.027Z,5.10
2022-08-19T09:38:08.968Z,4.60
2022-08-19T09:39:40.939Z,4.40
2022-08-19T09:40:12.104Z,5.60
2022-08-19T09:41:09.087Z,3.90
2022-08-19T09:42:50.412Z,4.40
2022-08-19T09:43:13.349Z,4.30
2022-08-19T09:44:08.951Z,4.80
2022-08-19T09:45:10.392Z,7.90
2022-08-19T09:46:08.930Z,4.20
2022-08-19T09:47:40.846Z,3.70
2022-08-19T09:48:09.469Z,7.40
2022-08-19T09:49:08.897Z,5.90
2022-08-19T09:50:08.917Z,3.50
2022-08-19T09:51:08.898Z,5.00
2022-08-19T09:52:08.876Z,7.10
2022-08-19T09:53:08.876Z,6.00
2022-08-19T09:54:11.468Z,3.80
2022-08-19T09:55:08.916Z,3.10
2022-08-19T09:56:09.340Z,5.10
2022-08-19T09:57:08.860Z,5.40
2022-08-19T09:58:08.857Z,4.50
2022-08-19T09:59:08.954Z,14.30
2022-08-19T10:00:08.828Z,5.40
2022-08-19T10:01:08.814Z,4.40
2022-08-19T10:02:10.617Z,4.70
2022-08-19T10:03:08.927Z,5.50
2022-08-19T10:04:20.093Z,8.10
2022-08-19T10:05:10.807Z,4.00
2022-08-19T10:06:15.203Z,5.90
2022-08-19T10:07:09.782Z,2.60
2022-08-19T10:08:13.755Z,4.50
2022-08-19T10:09:09.804Z,3.30
2022-08-19T10:10:08.801Z,2.90
2022-08-19T10:11:28.307Z,3.30
2022-08-19T10:12:11.337Z,3.80
2022-08-19T10:13:09.320Z,3.60
2022-08-19T10:14:08.760Z,3.40
2022-08-19T10:15:08.834Z,4.50
2022-08-19T10:16:08.760Z,4.50
2022-08-19T10:17:20.009Z,4.60
2022-08-19T10:18:09.723Z,3.90
2022-08-19T10:19:08.709Z,3.10
2022-08-19T10:20:08.712Z,4.80
2022-08-19T10:21:08.817Z,4.30
2022-08-19T10:22:10.099Z,4.50
2022-08-19T10:23:08.692Z,4.00
2022-08-19T10:24:09.476Z,3.00
2022-08-19T10:25:08.687Z,3.20
2022-08-19T10:26:09.325Z,3.10
2022-08-19T10:27:08.902Z,4.50
2022-08-19T10:28:10.598Z,3.00
2022-08-19T10:29:09.205Z,2.60
2022-08-19T10:30:10.099Z,3.00
2022-08-19T10:31:08.607Z,3.10
2022-08-19T10:32:09.728Z,3.10
2022-08-19T10:33:11.291Z,3.80
2022-08-19T10:34:10.084Z,3.60
2022-08-19T10:35:09.573Z,5.90
2022-08-19T10:36:08.572Z,5.00
2022-08-19T10:37:10.826Z,4.10
2022-08-19T10:38:09.566Z,4.60
2022-08-19T10:39:08.662Z,4.40
2022-08-19T10:40:09.232Z,3.50
2022-08-19T10:41:08.560Z,2.70
2022-08-19T10:42:08.516Z,3.30
2022-08-19T10:43:09.309Z,5.10
2022-08-19T10:44:08.541Z,2.70
2022-08-19T10:45:08.500Z,4.20
2022-08-19T10:46:13.691Z,4.80
2022-08-19T10:47:24.372Z,6.30
2022-08-19T10:48:09.521Z,3.40
2022-08-19T10:49:09.491Z,5.90
2022-08-19T10:50:09.305Z,2.80
2022-08-19T10:51:08.509Z,2.80
2022-08-19T10:52:10.197Z,5.20
2022-08-19T10:53:09.808Z,3.40
2022-08-19T10:54:12.555Z,2.90
2022-08-19T10:55:08.905Z,3.90
2022-08-19T10:56:08.472Z,6.20
2022-08-19T10:57:08.475Z,3.40
2022-08-19T10:58:08.758Z,3.20
2022-08-19T10:59:08.454Z,3.00
2022-08-19T11:00:08.426Z,5.70
2022-08-19T11:01:08.469Z,6.50
2022-08-19T11:02:08.422Z,2.90
2022-08-19T11:03:09.539Z,4.10
2022-08-19T11:04:08.405Z,3.10
2022-08-19T11:05:12.630Z,5.30
2022-08-19T11:06:09.375Z,3.10
2022-08-19T11:07:08.371Z,5.30
2022-08-19T11:08:23.150Z,3.30
2022-08-19T11:09:09.377Z,4.50
2022-08-19T11:10:11.497Z,3.20
2022-08-19T11:11:09.343Z,4.70
2022-08-19T11:12:08.357Z,3.60
2022-08-19T11:13:08.338Z,3.00
2022-08-19T11:14:08.345Z,3.90
2022-08-19T11:15:09.315Z,4.40
2022-08-19T11:16:08.342Z,3.30
2022-08-19T11:17:08.367Z,4.10
2022-08-19T11:18:08.841Z,3.70
2022-08-19T11:19:08.297Z,3.60
2022-08-19T11:20:08.300Z,4.40
2022-08-19T11:21:08.276Z,2.40
2022-08-19T11:22:08.422Z,3.00
2022-08-19T11:23:08.254Z,3.90
2022-08-19T11:24:08.235Z,2.70
2022-08-19T11:25:08.262Z,3.10
2022-08-19T11:26:08.242Z,6.40
2022-08-19T11:27:08.239Z,5.40
2022-08-19T11:28:08.224Z,3.40
2022-08-19T11:29:08.237Z,5.70
2022-08-19T11:30:08.226Z,4.90
2022-08-19T11:31:08.217Z,2.80
2022-08-19T11:32:08.183Z,6.30
2022-08-19T11:33:08.265Z,3.20
2022-08-19T11:34:08.167Z,3.20
2022-08-19T11:35:08.226Z,3.30
2022-08-19T11:36:08.171Z,3.00
2022-08-19T11:37:08.143Z,2.50
2022-08-19T11:38:09.865Z,3.80
2022-08-19T11:39:09.159Z,2.20
2022-08-19T11:40:08.172Z,1.90
2022-08-19T11:41:08.133Z,2.60
2022-08-19T11:42:08.118Z,1.80
2022-08-19T11:43:08.153Z,2.40
2022-08-19T11:44:08.123Z,2.50
2022-08-19T11:45:08.887Z,2.70
2022-08-19T11:46:08.133Z,4.00
2022-08-19T11:47:08.903Z,5.50
2022-08-19T11:48:08.079Z,3.60
2022-08-19T11:49:13.218Z,3.30
2022-08-19T11:50:10.072Z,3.20
2022-08-19T11:51:08.063Z,3.10
2022-08-19T11:52:08.057Z,3.50
2022-08-19T11:53:08.039Z,2.50
2022-08-19T11:54:08.051Z,2.60
2022-08-19T11:55:08.132Z,1.70
2022-08-19T11:56:08.018Z,3.20
2022-08-19T11:57:08.019Z,2.40
2022-08-19T11:58:07.993Z,3.30
2022-08-19T11:59:14.102Z,3.70
2022-08-19T12:00:09.042Z,2.40
2022-08-19T12:01:07.999Z,5.00
2022-08-19T12:02:08.001Z,3.60
2022-08-19T12:03:07.976Z,5.20
2022-08-19T12:04:08.032Z,3.80
2022-08-19T12:05:12.023Z,4.00
2022-08-19T12:06:08.959Z,3.30
2022-08-19T12:07:07.928Z,3.60
2022-08-19T12:08:07.916Z,5.30
2022-08-19T12:09:08.001Z,3.30
2022-08-19T12:10:07.934Z,2.70
2022-08-19T12:11:07.908Z,3.40
2022-08-19T12:12:07.893Z,3.80
2022-08-19T12:13:07.887Z,2.40
2022-08-19T12:14:07.908Z,2.40
2022-08-19T12:15:07.883Z,3.10
2022-08-19T12:16:07.875Z,2.00
2022-08-19T12:17:07.899Z,5.60
2022-08-19T12:18:07.866Z,3.30
2022-08-19T12:19:07.852Z,3.10
2022-08-19T12:20:07.846Z,3.80
2022-08-19T12:21:07.841Z,9.90
2022-08-19T12:22:07.814Z,3.40
2022-08-19T12:23:07.813Z,5.50
2022-08-19T12:24:07.889Z,5.10
2022-08-19T12:25:07.852Z,3.50
2022-08-19T12:26:07.900Z,2.80
2022-08-19T12:27:12.801Z,2.90
2022-08-19T12:28:08.801Z,2.10
2022-08-19T12:29:07.782Z,3.30
2022-08-19T12:30:07.860Z,6.10
2022-08-19T12:31:07.754Z,4.80
2022-08-19T12:32:08.775Z,3.00
2022-08-19T12:33:07.772Z,2.80
2022-08-19T12:34:07.782Z,3.50
2022-08-19T12:35:07.726Z,3.90
2022-08-19T12:36:07.727Z,2.40
2022-08-19T12:37:07.725Z,3.70
2022-08-19T12:38:07.723Z,3.30
2022-08-19T12:39:07.724Z,2.60
2022-08-19T12:40:07.858Z,5.10
2022-08-19T12:41:07.704Z,2.80
2022-08-19T12:42:08.378Z,2.20
2022-08-19T12:43:07.765Z,3.20
2022-08-19T12:44:07.676Z,2.40
2022-08-19T12:45:07.692Z,3.40
2022-08-19T12:46:07.669Z,3.70
2022-08-19T12:47:07.663Z,2.00
2022-08-19T12:48:34.574Z,3.50
2022-08-19T12:49:51.893Z,4.10
2022-08-19T12:50:08.672Z,2.90
2022-08-19T12:51:07.724Z,4.90
2022-08-19T12:52:07.600Z,3.00
2022-08-19T12:53:07.862Z,3.00
2022-08-19T12:54:07.620Z,2.50
2022-08-19T12:55:07.625Z,4.80
2022-08-19T12:56:08.970Z,2.10
2022-08-19T12:57:07.585Z,3.60
2022-08-19T12:58:07.657Z,2.90
2022-08-19T12:59:07.584Z,3.70
2022-08-19T13:00:07.592Z,4.00
2022-08-19T13:01:07.586Z,3.10
2022-08-19T13:02:07.555Z,3.40
2022-08-19T13:03:07.538Z,3.50
2022-08-19T13:04:07.517Z,3.90
2022-08-19T13:05:07.527Z,3.50
2022-08-19T13:06:07.566Z,3.80
2022-08-19T13:07:07.545Z,3.00
2022-08-19T13:08:07.505Z,3.60
2022-08-19T13:09:07.514Z,3.20
2022-08-19T13:10:07.593Z,2.40
2022-08-19T13:11:07.499Z,3.40
2022-08-19T13:12:07.510Z,2.60
2022-08-19T13:13:07.523Z,3.70
2022-08-19T13:14:07.467Z,5.20
2022-08-19T13:15:10.986Z,3.90
2022-08-19T13:16:07.475Z,2.50
2022-08-19T13:17:07.494Z,3.40
2022-08-19T13:18:07.461Z,3.20
2022-08-19T13:19:07.425Z,3.00
2022-08-19T13:20:07.478Z,3.10
2022-08-19T13:21:07.454Z,3.50
2022-08-19T13:22:12.476Z,3.00
2022-08-19T13:23:08.399Z,2.40
2022-08-19T13:24:07.405Z,4.40
2022-08-19T13:25:07.535Z,3.10
2022-08-19T13:26:07.387Z,2.60
2022-08-19T13:27:07.386Z,3.40
2022-08-19T13:28:07.382Z,2.80
2022-08-19T13:29:07.370Z,2.80
2022-08-19T13:30:07.422Z,2.80
2022-08-19T13:31:07.342Z,3.80
2022-08-19T13:32:07.341Z,4.60
2022-08-19T13:33:07.362Z,3.40
2022-08-19T13:34:07.309Z,4.40
2022-08-19T13:35:07.403Z,3.90
2022-08-19T13:36:07.620Z,3.10
2022-08-19T13:37:07.316Z,2.80
2022-08-19T13:38:12.110Z,4.20
2022-08-19T13:39:08.800Z,3.10
2022-08-19T13:40:07.338Z,2.70